Station: Marree Airport

  Atmospheric Gas Attenuation - ITU Rec 676-11   --------------- db/100km ---------------
Date Time Temp RH % AH g/m3 Dew Point Wind Direction Speed kph Gust kph Barometer mB Rainfall Since 9am 24GHz 47GHz 76GHz 122GHz 134GHz 241GHz
15 01:10 12 70 7.46 6.7 17 17 1019 0 17.2 24.8 36.4 95.2 86.0 294.8
15 01:00 12.3 69 7.49 6.8 17 19 1019.1 0 17.3 24.8 36.4 95.2 86.1 295.1
15 00:50 12.7 69 7.68 7.2 15 17 1019.3 0 17.7 25.0 36.9 96.7 88.1 302.3
15 00:40 11.1 72 7.25 6.3 13 13 1019.3 0 16.8 24.7 36.0 94.1 84.3 288.6
15 00:30 10.7 73 7.17 6.1 9 9 1019.3 0 16.7 24.7 35.8 93.7 83.7 286.4
15 00:20 10.6 71 6.93 5.6 11 11 1019.3 0 16.2 24.3 34.9 91.3 80.6 275.8
15 00:10 10.9 70 6.96 5.7 7 9 1019.2 0 16.2 24.3 34.9 91.2 80.7 276.1
15 00:00 10.9 70 6.96 5.7 0 4 1019.4 0 16.2 24.3 34.9 91.3 80.7 276.1
14 23:50 11.2 73 7.4 6.5 9 9 1019.3 0 17.1 24.9 36.5 95.5 86.1 295.2
14 23:40 10.6 71 6.93 5.6 9 9 1019.2 0 16.2 24.3 34.9 91.3 80.6 275.8
14 23:30 11.7 70 7.32 6.4 2 7 1019.3 0 16.9 24.7 36.0 94.1 84.6 289.6
14 23:20 11.6 68 7.07 5.9 6 6 1019.3 0 16.4 24.3 35.0 91.6 81.4 278.7
14 23:10 11.7 68 7.11 6 7 9 1019.2 0 16.5 24.3 35.1 91.9 81.8 280.1
14 23:00 12.4 68 7.43 6.7 7 7 1019.1 0 17.2 24.6 36.1 94.4 85.2 292.0
14 22:50 11.7 70 7.32 6.4 6 7 1019.2 0 16.9 24.7 36.0 94.1 84.5 289.6
14 22:40 12 69 7.35 6.5 7 9 1019.1 0 17.0 24.6 35.9 94.0 84.6 289.9
14 22:30 12.1 69 7.4 6.6 7 9 1019.1 0 17.1 24.7 36.1 94.4 85.1 291.8
14 22:20 11.9 68 7.2 6.2 7 9 1019 0 16.7 24.4 35.4 92.6 82.8 283.4
14 22:10 12.1 68 7.29 6.4 11 11 1019 0 16.9 24.5 35.7 93.3 83.7 286.8
14 22:00 12.2 67 7.23 6.3 11 13 1019.1 0 16.7 24.4 35.4 92.5 82.8 283.7
14 21:50 11.9 66 6.99 5.8 13 13 1019.1 0 16.2 24.1 34.6 90.4 80.1 274.0
14 21:40 12.1 64 6.86 5.5 11 13 1019.2 0 15.9 23.8 34.0 88.8 78.2 267.5
14 21:30 12.7 65 7.24 6.3 13 13 1019.1 0 16.7 24.3 35.2 92.1 82.4 282.4
14 21:20 12.7 64 7.13 6.1 13 15 1018.9 0 16.5 24.1 34.8 90.9 81.0 277.4
14 21:10 13.1 63 7.19 6.2 15 15 1019 0 16.6 24.1 34.8 91.1 81.4 278.7
14 21:00 13.7 61 7.22 6.3 13 15 1019.1 0 16.6 24.0 34.7 90.7 81.1 278.0
14 20:50 14.2 62 7.57 7 11 11 1019.1 0 17.4 24.4 35.8 93.7 85.0 291.7
14 20:40 14.1 60 7.28 6.5 7 7 1018.9 0 16.8 23.9 34.7 90.9 81.5 279.2
14 20:30 14.3 60 7.37 6.6 7 7 1018.8 0 16.9 24.0 35.0 91.5 82.4 282.4
14 20:20 14.4 59 7.29 6.5 9 9 1018.8 0 16.8 23.9 34.6 90.6 81.3 278.5
14 20:10 14 59 7.12 6.1 11 11 1018.6 0 16.4 23.7 34.2 89.3 79.5 272.4
14 20:00 14 57 6.88 5.6 11 11 1018.7 0 15.9 23.3 33.3 86.9 76.6 262.0
14 19:50 14.5 57 7.09 6.1 9 9 1018.5 0 16.3 23.5 33.8 88.4 78.7 269.4
14 19:40 14.6 57 7.13 6.2 15 15 1018.5 0 16.4 23.6 33.9 88.7 79.1 270.8
14 19:30 14.9 54 6.88 5.7 15 15 1018.3 0 15.9 23.1 32.9 85.9 75.7 258.9
14 19:20 16 53 7.22 6.4 15 15 1018.2 0 16.6 23.3 33.7 88.1 78.8 269.9
14 19:10 16.3 52 7.21 6.4 15 15 1018 0 16.5 23.2 33.5 87.6 78.3 268.4
14 19:00 16.7 51 7.25 6.5 15 17 1018.1 0 16.6 23.2 33.5 87.6 78.4 268.8
14 18:50 17 49 7.09 6.2 17 17 1018 0 16.2 22.9 32.8 85.7 76.2 261.0
14 18:40 17.2 48 7.03 6.1 15 17 1017.9 0 16.1 22.7 32.5 84.9 75.3 257.8
14 18:30 17.8 47 7.13 6.3 17 19 1017.7 0 16.3 22.7 32.6 85.2 75.9 260.1
14 18:20 17.7 46 6.94 5.9 15 17 1017.7 0 15.9 22.5 32.0 83.5 73.7 252.5
14 18:10 18 45 6.91 5.9 15 15 1017.6 0 15.8 22.3 31.7 82.9 73.1 250.3
14 18:00 18.2 44 6.84 5.8 15 15 1017.4 0 15.7 22.2 31.4 82.0 72.1 246.8
14 17:50 18.7 43 6.88 5.9 15 15 1017.3 0 15.7 22.1 31.3 81.9 72.1 246.9
14 17:40 19.1 42 6.88 5.9 15 17 1017.3 0 15.7 22.0 31.2 81.5 71.7 245.6
14 17:30 19.7 41 6.96 6.1 15 20 1017.2 0 15.9 22.0 31.2 81.6 72.1 247.0
14 17:20 20 39 6.74 5.6 20 20 1017.1 0 15.4 21.6 30.4 79.3 69.3 237.3
14 17:10 20.4 38 6.72 5.6 24 26 1017.1 0 15.3 21.5 30.1 78.7 68.8 235.4
14 17:00 20.6 37 6.62 5.4 22 28 1017 0 15.1 21.3 29.7 77.6 67.5 230.8
14 16:50 20.9 35 6.37 4.9 28 33 1016.8 0 14.6 20.9 28.8 75.0 64.4 220.2
14 16:40 21.2 34 6.3 4.7 32 37 1016.6 0 14.4 20.7 28.4 74.1 63.4 216.6
14 16:30 21.4 32 6 4 30 33 1016.5 0 13.8 20.3 27.4 71.3 60.0 204.6
14 16:20 21.7 33 6.29 4.7 24 33 1016.4 0 14.4 20.6 28.2 73.6 62.9 214.9
14 16:10 22 32 6.21 4.6 24 30 1016.4 0 14.2 20.4 27.8 72.6 61.8 211.1
14 16:00 22 32 6.21 4.6 26 30 1016.3 0 14.2 20.4 27.8 72.6 61.8 211.0
14 15:50 22 33 6.4 5 30 32 1016.3 0 14.6 20.7 28.5 74.3 63.9 218.3
14 15:40 22.3 34 6.71 5.7 26 28 1016.1 0 15.2 21.0 29.4 76.7 67.0 229.4
14 15:30 22.3 34 6.71 5.7 24 30 1016 0 15.2 21.0 29.4 76.7 67.0 229.4
14 15:20 22.4 32 6.35 4.9 26 32 1015.8 0 14.5 20.5 28.2 73.4 63.0 215.3
14 15:10 22.2 32 6.28 4.7 33 35 1015.7 0 14.3 20.4 28.0 73.0 62.4 213.1
14 15:00 22.5 35 6.99 6.3 28 41 1015.7 0 15.8 21.3 30.2 79.0 69.9 239.6
14 14:50 22.5 36 7.19 6.7 26 28 1015.8 0 16.2 21.6 30.9 80.8 72.1 247.5
14 14:40 22.3 38 7.5 7.3 26 28 1015.9 0 16.9 22.1 32.1 83.9 75.8 260.3
14 14:30 22.3 41 8.1 8.4 28 30 1015.9 0 18.1 22.9 34.1 89.4 82.7 284.5
14 14:20 22.8 40 8.13 8.5 32 33 1016 0 18.2 22.9 34.0 89.2 82.5 284.0
14 14:10 22.7 41 8.28 8.8 19 20 1015.9 0 18.5 23.1 34.6 90.7 84.4 290.4
14 14:00 23 40 8.22 8.7 22 26 1015.8 0 18.4 22.9 34.3 89.8 83.3 286.8
14 13:50 22.8 40 8.13 8.5 22 26 1016 0 18.2 22.9 34.0 89.2 82.5 284.0
14 13:40 22.7 43 8.69 9.5 17 20 1016.1 0 19.4 23.7 36.1 94.6 89.2 307.2
14 13:30 22.3 42 8.29 8.8 20 22 1016.3 0 18.5 23.2 34.8 91.3 84.9 292.3
14 13:20 22.4 42 8.34 8.9 20 24 1016.6 0 18.6 23.3 35.0 91.6 85.4 294.1
14 13:10 22.2 41 8.05 8.3 24 30 1016.8 0 18.0 22.9 34.0 89.2 82.3 283.0
14 13:00 21.8 42 8.06 8.3 13 17 1016.9 0 18.1 23.0 34.2 89.7 82.8 284.8
14 12:50 21.7 43 8.2 8.6 20 22 1017 0 18.4 23.3 34.8 91.1 84.6 290.9
14 12:40 22 43 8.34 8.9 26 30 1017.2 0 18.7 23.4 35.2 92.2 85.9 295.7
14 12:30 21.8 44 8.44 9 30 33 1017.4 0 18.9 23.6 35.6 93.4 87.3 300.6
14 12:20 21.8 45 8.63 9.3 30 37 1017.5 0 19.3 23.9 36.3 95.2 89.6 308.5
14 12:10 20.7 46 8.28 8.7 26 32 1017.7 0 18.6 23.7 35.5 93.1 86.6 298.1
14 12:00 20.8 47 8.51 9.1 28 32 1017.9 0 19.1 24.0 36.3 95.2 89.3 307.4
14 11:50 20 49 8.47 9 24 28 1018.1 0 19.0 24.1 36.6 95.8 89.7 308.8
14 11:40 19.6 52 8.78 9.5 17 19 1018.4 0 19.7 24.7 37.9 99.4 94.0 323.7
14 11:30 19 52 8.47 8.9 24 28 1018.7 0 19.1 24.4 37.0 97.1 90.9 312.8
14 11:20 19.5 52 8.73 9.4 19 20 1018.9 0 19.6 24.7 37.8 99.1 93.5 322.1
14 11:10 19.1 52 8.52 9 26 30 1019.1 0 19.2 24.5 37.2 97.5 91.4 314.7
14 11:00 18.8 53 8.53 9 22 26 1019.1 0 19.2 24.6 37.4 98.0 91.9 316.3
14 10:50 18.7 54 8.64 9.2 19 22 1019.4 0 19.4 24.8 37.8 99.2 93.4 321.5
14 10:40 18.3 55 8.6 9.1 19 22 1019.5 0 19.4 24.9 37.9 99.3 93.4 321.4
14 10:30 17.6 56 8.4 8.7 20 22 1019.6 0 19.0 24.7 37.5 98.2 91.7 315.5
14 10:20 17.5 58 8.65 9.2 20 26 1019.5 0 19.5 25.2 38.5 100.8 95.0 326.9
14 10:10 16.9 59 8.49 8.8 22 24 1019.7 0 19.2 25.1 38.1 100.0 93.7 322.3
14 10:00 17.3 59 8.69 9.2 20 24 1019.6 0 19.6 25.3 38.7 101.5 95.7 329.5
14 09:50 16.7 60 8.53 8.9 20 22 1019.7 0 19.3 25.2 38.4 100.6 94.4 324.9
14 09:40 16.5 61 8.57 9 22 26 1019.6 0 19.4 25.3 38.6 101.3 95.2 327.5
14 09:30 16.5 61 8.57 9 19 24 1019.2 0 19.4 25.3 38.6 101.2 95.1 327.4
14 09:20 16.2 62 8.55 8.9 19 20 1019.1 0 19.4 25.3 38.7 101.4 95.2 327.7
14 09:10 15.7 65 8.7 9.1 15 20 1019.2 0 19.7 25.7 39.5 103.6 97.8 336.6
14 09:00 15.1 67 8.64 9 11 13 1019 0 19.6 25.8 39.6 103.8 97.8 336.3
14 08:50 14.7 68 8.56 8.9 11 13 1018.7 0 19.5 25.8 39.4 103.4 97.2 334.3
14 08:40 14.3 69 8.48 8.7 13 15 1018.5 0 19.3 25.8 39.3 103.1 96.6 332.3

Last Refresh: 15-Jun-2024 01:19:10

Bureau of Meteorology